sensor_id;sensor_type;location;lat;lon;timestamp;P1;durP1;ratioP1;P2;durP2;ratioP2
3597;SDS011;1813;52.016;8.714;2022-08-01T00:01:52;17.00;;;11.40;;
3597;SDS011;1813;52.016;8.714;2022-08-01T00:04:24;23.13;;;11.40;;
3597;SDS011;1813;52.016;8.714;2022-08-01T00:06:57;16.83;;;11.10;;
3597;SDS011;1813;52.016;8.714;2022-08-01T00:09:29;22.00;;;11.13;;
3597;SDS011;1813;52.016;8.714;2022-08-01T00:12:01;19.30;;;10.77;;
3597;SDS011;1813;52.016;8.714;2022-08-01T00:14:35;15.27;;;10.03;;
3597;SDS011;1813;52.016;8.714;2022-08-01T00:17:07;11.83;;;9.60;;
3597;SDS011;1813;52.016;8.714;2022-08-01T00:19:39;16.10;;;10.00;;
3597;SDS011;1813;52.016;8.714;2022-08-01T00:22:12;13.80;;;9.80;;
3597;SDS011;1813;52.016;8.714;2022-08-01T00:24:44;18.20;;;9.80;;
3597;SDS011;1813;52.016;8.714;2022-08-01T00:27:16;19.50;;;9.67;;
3597;SDS011;1813;52.016;8.714;2022-08-01T00:29:48;16.23;;;9.73;;
3597;SDS011;1813;52.016;8.714;2022-08-01T00:32:20;12.70;;;9.03;;
3597;SDS011;1813;52.016;8.714;2022-08-01T00:34:52;17.70;;;9.23;;
3597;SDS011;1813;52.016;8.714;2022-08-01T00:37:25;19.27;;;9.07;;
3597;SDS011;1813;52.016;8.714;2022-08-01T00:39:57;15.00;;;8.73;;
3597;SDS011;1813;52.016;8.714;2022-08-01T00:42:29;15.60;;;8.60;;
3597;SDS011;1813;52.016;8.714;2022-08-01T00:45:01;15.83;;;8.27;;
3597;SDS011;1813;52.016;8.714;2022-08-01T00:47:33;10.83;;;8.17;;
3597;SDS011;1813;52.016;8.714;2022-08-01T00:50:06;15.53;;;8.57;;
3597;SDS011;1813;52.016;8.714;2022-08-01T00:52:40;12.63;;;8.67;;
3597;SDS011;1813;52.016;8.714;2022-08-01T00:55:12;11.00;;;8.93;;
3597;SDS011;1813;52.016;8.714;2022-08-01T00:57:44;11.23;;;8.43;;
3597;SDS011;1813;52.016;8.714;2022-08-01T01:00:17;17.30;;;9.23;;
3597;SDS011;1813;52.016;8.714;2022-08-01T01:02:49;19.47;;;9.30;;
3597;SDS011;1813;52.016;8.714;2022-08-01T01:05:22;17.10;;;9.20;;
3597;SDS011;1813;52.016;8.714;2022-08-01T01:07:56;17.73;;;8.87;;
3597;SDS011;1813;52.016;8.714;2022-08-01T01:10:32;18.33;;;9.50;;
3597;SDS011;1813;52.016;8.714;2022-08-01T01:13:11;16.67;;;9.30;;
3597;SDS011;1813;52.016;8.714;2022-08-01T01:15:50;13.17;;;9.80;;
3597;SDS011;1813;52.016;8.714;2022-08-01T01:18:27;20.77;;;9.73;;
3597;SDS011;1813;52.016;8.714;2022-08-01T01:21:07;15.67;;;9.50;;
3597;SDS011;1813;52.016;8.714;2022-08-01T01:23:53;17.67;;;10.90;;
3597;SDS011;1813;52.016;8.714;2022-08-01T01:26:38;18.73;;;11.23;;
3597;SDS011;1813;52.016;8.714;2022-08-01T01:29:17;22.30;;;10.70;;
3597;SDS011;1813;52.016;8.714;2022-08-01T01:31:57;21.33;;;11.00;;
3597;SDS011;1813;52.016;8.714;2022-08-01T01:34:36;13.97;;;10.50;;
3597;SDS011;1813;52.016;8.714;2022-08-01T01:37:12;20.07;;;11.27;;
3597;SDS011;1813;52.016;8.714;2022-08-01T01:39:48;15.50;;;10.40;;
3597;SDS011;1813;52.016;8.714;2022-08-01T01:42:22;18.63;;;11.63;;
3597;SDS011;1813;52.016;8.714;2022-08-01T01:44:59;17.50;;;11.23;;
3597;SDS011;1813;52.016;8.714;2022-08-01T01:47:34;22.30;;;11.10;;
3597;SDS011;1813;52.016;8.714;2022-08-01T01:50:08;22.83;;;11.67;;
3597;SDS011;1813;52.016;8.714;2022-08-01T01:52:42;17.50;;;10.77;;
3597;SDS011;1813;52.016;8.714;2022-08-01T01:55:16;17.30;;;11.70;;
3597;SDS011;1813;52.016;8.714;2022-08-01T01:57:51;12.50;;;9.73;;
3597;SDS011;1813;52.016;8.714;2022-08-01T02:00:26;15.73;;;10.00;;
3597;SDS011;1813;52.016;8.714;2022-08-01T02:03:01;13.43;;;8.83;;
3597;SDS011;1813;52.016;8.714;2022-08-01T02:05:36;11.50;;;7.90;;
3597;SDS011;1813;52.016;8.714;2022-08-01T02:08:10;11.27;;;7.60;;
3597;SDS011;1813;52.016;8.714;2022-08-01T02:10:45;13.73;;;8.53;;
3597;SDS011;1813;52.016;8.714;2022-08-01T02:13:31;22.60;;;8.77;;
3597;SDS011;1813;52.016;8.714;2022-08-01T02:16:07;13.03;;;8.93;;
3597;SDS011;1813;52.016;8.714;2022-08-01T02:18:41;19.90;;;8.23;;
3597;SDS011;1813;52.016;8.714;2022-08-01T02:21:14;15.23;;;7.50;;
3597;SDS011;1813;52.016;8.714;2022-08-01T02:23:50;11.00;;;6.53;;
3597;SDS011;1813;52.016;8.714;2022-08-01T02:26:24;12.80;;;6.30;;
3597;SDS011;1813;52.016;8.714;2022-08-01T02:28:57;14.27;;;6.57;;
3597;SDS011;1813;52.016;8.714;2022-08-01T02:31:36;13.70;;;6.40;;
3597;SDS011;1813;52.016;8.714;2022-08-01T02:34:16;8.90;;;6.40;;
3597;SDS011;1813;52.016;8.714;2022-08-01T02:36:50;16.80;;;6.73;;
3597;SDS011;1813;52.016;8.714;2022-08-01T02:39:25;10.90;;;6.23;;
3597;SDS011;1813;52.016;8.714;2022-08-01T02:42:00;9.40;;;6.07;;
3597;SDS011;1813;52.016;8.714;2022-08-01T02:44:37;6.33;;;5.47;;
3597;SDS011;1813;52.016;8.714;2022-08-01T02:47:14;21.40;;;5.80;;
3597;SDS011;1813;52.016;8.714;2022-08-01T02:49:51;12.27;;;5.47;;
3597;SDS011;1813;52.016;8.714;2022-08-01T02:52:25;10.80;;;4.60;;
3597;SDS011;1813;52.016;8.714;2022-08-01T02:54:59;6.53;;;5.07;;
3597;SDS011;1813;52.016;8.714;2022-08-01T02:57:33;7.40;;;4.43;;
3597;SDS011;1813;52.016;8.714;2022-08-01T03:00:08;10.47;;;5.13;;
3597;SDS011;1813;52.016;8.714;2022-08-01T03:02:42;9.20;;;4.93;;
3597;SDS011;1813;52.016;8.714;2022-08-01T03:05:15;5.73;;;4.77;;
3597;SDS011;1813;52.016;8.714;2022-08-01T03:07:48;8.73;;;4.50;;
3597;SDS011;1813;52.016;8.714;2022-08-01T03:10:22;9.33;;;4.23;;
3597;SDS011;1813;52.016;8.714;2022-08-01T03:12:56;14.07;;;4.60;;
3597;SDS011;1813;52.016;8.714;2022-08-01T03:15:32;7.70;;;3.90;;
3597;SDS011;1813;52.016;8.714;2022-08-01T03:18:08;5.80;;;3.70;;
3597;SDS011;1813;52.016;8.714;2022-08-01T03:20:42;7.53;;;4.53;;
3597;SDS011;1813;52.016;8.714;2022-08-01T03:23:16;9.80;;;4.60;;
3597;SDS011;1813;52.016;8.714;2022-08-01T03:25:49;7.20;;;4.33;;
3597;SDS011;1813;52.016;8.714;2022-08-01T03:28:23;7.43;;;4.03;;
3597;SDS011;1813;52.016;8.714;2022-08-01T03:30:57;7.03;;;4.80;;
3597;SDS011;1813;52.016;8.714;2022-08-01T03:33:32;11.73;;;4.47;;
3597;SDS011;1813;52.016;8.714;2022-08-01T03:36:04;7.77;;;4.27;;
3597;SDS011;1813;52.016;8.714;2022-08-01T03:38:39;9.10;;;4.60;;
3597;SDS011;1813;52.016;8.714;2022-08-01T03:41:15;6.40;;;4.50;;
3597;SDS011;1813;52.016;8.714;2022-08-01T03:43:52;17.80;;;5.33;;
3597;SDS011;1813;52.016;8.714;2022-08-01T03:46:29;7.83;;;4.53;;
3597;SDS011;1813;52.016;8.714;2022-08-01T03:49:08;5.00;;;4.57;;
3597;SDS011;1813;52.016;8.714;2022-08-01T03:51:45;17.73;;;5.33;;
3597;SDS011;1813;52.016;8.714;2022-08-01T03:54:21;10.93;;;5.23;;
3597;SDS011;1813;52.016;8.714;2022-08-01T03:56:55;7.27;;;5.13;;
3597;SDS011;1813;52.016;8.714;2022-08-01T03:59:29;9.67;;;5.63;;
3597;SDS011;1813;52.016;8.714;2022-08-01T04:02:02;8.10;;;5.77;;
3597;SDS011;1813;52.016;8.714;2022-08-01T04:04:36;14.50;;;5.90;;
3597;SDS011;1813;52.016;8.714;2022-08-01T04:07:20;11.90;;;5.50;;
3597;SDS011;1813;52.016;8.714;2022-08-01T04:09:53;15.07;;;5.57;;
3597;SDS011;1813;52.016;8.714;2022-08-01T04:12:25;12.23;;;5.57;;
3597;SDS011;1813;52.016;8.714;2022-08-01T04:14:57;11.30;;;5.87;;
3597;SDS011;1813;52.016;8.714;2022-08-01T04:17:29;8.57;;;6.00;;
3597;SDS011;1813;52.016;8.714;2022-08-01T04:20:02;7.10;;;5.50;;
3597;SDS011;1813;52.016;8.714;2022-08-01T04:22:35;7.43;;;5.40;;
3597;SDS011;1813;52.016;8.714;2022-08-01T04:25:09;11.60;;;5.10;;
3597;SDS011;1813;52.016;8.714;2022-08-01T04:27:46;11.10;;;5.80;;
3597;SDS011;1813;52.016;8.714;2022-08-01T04:30:22;6.20;;;5.40;;
3597;SDS011;1813;52.016;8.714;2022-08-01T04:32:59;9.40;;;6.00;;
3597;SDS011;1813;52.016;8.714;2022-08-01T04:35:33;9.17;;;6.30;;
3597;SDS011;1813;52.016;8.714;2022-08-01T04:38:07;11.10;;;5.37;;
3597;SDS011;1813;52.016;8.714;2022-08-01T04:40:43;10.27;;;6.07;;
3597;SDS011;1813;52.016;8.714;2022-08-01T04:43:16;7.77;;;6.03;;
3597;SDS011;1813;52.016;8.714;2022-08-01T04:45:49;7.57;;;5.83;;
3597;SDS011;1813;52.016;8.714;2022-08-01T04:48:22;7.23;;;5.57;;
3597;SDS011;1813;52.016;8.714;2022-08-01T04:50:57;7.30;;;6.00;;
3597;SDS011;1813;52.016;8.714;2022-08-01T04:53:29;10.03;;;6.50;;
3597;SDS011;1813;52.016;8.714;2022-08-01T04:56:02;10.07;;;6.23;;
3597;SDS011;1813;52.016;8.714;2022-08-01T04:58:36;7.80;;;5.97;;
3597;SDS011;1813;52.016;8.714;2022-08-01T05:01:08;8.27;;;5.97;;
3597;SDS011;1813;52.016;8.714;2022-08-01T05:03:40;10.30;;;6.40;;
3597;SDS011;1813;52.016;8.714;2022-08-01T05:06:14;11.63;;;7.10;;
3597;SDS011;1813;52.016;8.714;2022-08-01T05:08:46;13.13;;;6.60;;
3597;SDS011;1813;52.016;8.714;2022-08-01T05:11:17;10.00;;;7.57;;
3597;SDS011;1813;52.016;8.714;2022-08-01T05:13:49;8.77;;;7.00;;
3597;SDS011;1813;52.016;8.714;2022-08-01T05:16:21;11.87;;;7.70;;
3597;SDS011;1813;52.016;8.714;2022-08-01T05:18:53;9.60;;;7.10;;
3597;SDS011;1813;52.016;8.714;2022-08-01T05:21:27;11.17;;;7.63;;
3597;SDS011;1813;52.016;8.714;2022-08-01T05:23:59;17.13;;;8.17;;
3597;SDS011;1813;52.016;8.714;2022-08-01T05:26:31;9.53;;;8.47;;
3597;SDS011;1813;52.016;8.714;2022-08-01T05:29:03;18.40;;;7.73;;
3597;SDS011;1813;52.016;8.714;2022-08-01T05:31:35;10.17;;;8.07;;
3597;SDS011;1813;52.016;8.714;2022-08-01T05:34:07;12.10;;;8.50;;
3597;SDS011;1813;52.016;8.714;2022-08-01T05:36:40;11.97;;;8.43;;
3597;SDS011;1813;52.016;8.714;2022-08-01T05:39:12;9.57;;;8.30;;
3597;SDS011;1813;52.016;8.714;2022-08-01T05:41:45;10.40;;;7.50;;
3597;SDS011;1813;52.016;8.714;2022-08-01T05:44:17;13.40;;;7.90;;
3597;SDS011;1813;52.016;8.714;2022-08-01T05:46:49;15.23;;;7.93;;
3597;SDS011;1813;52.016;8.714;2022-08-01T05:49:21;12.70;;;8.47;;
3597;SDS011;1813;52.016;8.714;2022-08-01T05:51:54;11.30;;;7.90;;
3597;SDS011;1813;52.016;8.714;2022-08-01T05:54:26;17.10;;;7.73;;
3597;SDS011;1813;52.016;8.714;2022-08-01T05:56:58;8.47;;;7.63;;
3597;SDS011;1813;52.016;8.714;2022-08-01T05:59:31;14.43;;;7.60;;
3597;SDS011;1813;52.016;8.714;2022-08-01T06:02:03;12.73;;;7.60;;
3597;SDS011;1813;52.016;8.714;2022-08-01T06:04:35;7.97;;;7.03;;
3597;SDS011;1813;52.016;8.714;2022-08-01T06:07:09;11.70;;;7.50;;
3597;SDS011;1813;52.016;8.714;2022-08-01T06:09:41;9.70;;;6.83;;
3597;SDS011;1813;52.016;8.714;2022-08-01T06:12:13;10.87;;;7.87;;
3597;SDS011;1813;52.016;8.714;2022-08-01T06:14:45;12.53;;;7.50;;
3597;SDS011;1813;52.016;8.714;2022-08-01T06:17:16;7.70;;;6.90;;
3597;SDS011;1813;52.016;8.714;2022-08-01T06:19:48;12.83;;;8.10;;
3597;SDS011;1813;52.016;8.714;2022-08-01T06:22:22;8.83;;;7.13;;
3597;SDS011;1813;52.016;8.714;2022-08-01T06:24:54;11.23;;;7.17;;
3597;SDS011;1813;52.016;8.714;2022-08-01T06:27:26;10.37;;;7.43;;
3597;SDS011;1813;52.016;8.714;2022-08-01T06:29:58;12.30;;;7.23;;
3597;SDS011;1813;52.016;8.714;2022-08-01T06:32:30;9.73;;;6.73;;
3597;SDS011;1813;52.016;8.714;2022-08-01T06:35:02;8.43;;;6.50;;
3597;SDS011;1813;52.016;8.714;2022-08-01T06:37:37;23.60;;;7.60;;
3597;SDS011;1813;52.016;8.714;2022-08-01T06:40:09;20.27;;;7.07;;
3597;SDS011;1813;52.016;8.714;2022-08-01T06:42:43;12.13;;;6.47;;
3597;SDS011;1813;52.016;8.714;2022-08-01T06:45:16;12.70;;;5.90;;
3597;SDS011;1813;52.016;8.714;2022-08-01T06:47:48;8.03;;;5.40;;
3597;SDS011;1813;52.016;8.714;2022-08-01T06:50:20;14.47;;;6.27;;
3597;SDS011;1813;52.016;8.714;2022-08-01T06:52:53;9.80;;;5.50;;
3597;SDS011;1813;52.016;8.714;2022-08-01T06:55:25;7.57;;;5.27;;
3597;SDS011;1813;52.016;8.714;2022-08-01T06:57:57;6.90;;;5.10;;
3597;SDS011;1813;52.016;8.714;2022-08-01T07:00:29;8.60;;;5.60;;
3597;SDS011;1813;52.016;8.714;2022-08-01T07:03:01;10.03;;;5.33;;
3597;SDS011;1813;52.016;8.714;2022-08-01T07:05:33;22.90;;;6.40;;
3597;SDS011;1813;52.016;8.714;2022-08-01T07:08:07;12.53;;;6.37;;
3597;SDS011;1813;52.016;8.714;2022-08-01T07:10:39;7.33;;;4.20;;
3597;SDS011;1813;52.016;8.714;2022-08-01T07:13:11;7.23;;;3.77;;
3597;SDS011;1813;52.016;8.714;2022-08-01T07:15:45;7.20;;;3.60;;
3597;SDS011;1813;52.016;8.714;2022-08-01T07:18:17;7.70;;;3.83;;
3597;SDS011;1813;52.016;8.714;2022-08-01T07:20:49;6.03;;;3.77;;
3597;SDS011;1813;52.016;8.714;2022-08-01T07:23:23;4.90;;;3.60;;
3597;SDS011;1813;52.016;8.714;2022-08-01T07:25:55;4.07;;;3.20;;
3597;SDS011;1813;52.016;8.714;2022-08-01T07:28:27;4.40;;;3.20;;
3597;SDS011;1813;52.016;8.714;2022-08-01T07:30:59;3.23;;;3.03;;
3597;SDS011;1813;52.016;8.714;2022-08-01T07:33:31;4.43;;;3.20;;
3597;SDS011;1813;52.016;8.714;2022-08-01T07:36:06;6.17;;;2.77;;
3597;SDS011;1813;52.016;8.714;2022-08-01T07:38:40;9.23;;;3.07;;
3597;SDS011;1813;52.016;8.714;2022-08-01T07:41:11;3.83;;;2.43;;
3597;SDS011;1813;52.016;8.714;2022-08-01T07:43:44;7.20;;;3.10;;
3597;SDS011;1813;52.016;8.714;2022-08-01T07:46:15;4.10;;;2.90;;
3597;SDS011;1813;52.016;8.714;2022-08-01T07:48:48;3.30;;;3.00;;
3597;SDS011;1813;52.016;8.714;2022-08-01T07:51:20;2.87;;;2.67;;
3597;SDS011;1813;52.016;8.714;2022-08-01T07:53:53;3.43;;;3.17;;
3597;SDS011;1813;52.016;8.714;2022-08-01T07:56:25;6.13;;;3.13;;
3597;SDS011;1813;52.016;8.714;2022-08-01T07:58:58;8.23;;;3.10;;
3597;SDS011;1813;52.016;8.714;2022-08-01T08:01:30;6.90;;;3.00;;
3597;SDS011;1813;52.016;8.714;2022-08-01T08:04:02;3.73;;;3.33;;
3597;SDS011;1813;52.016;8.714;2022-08-01T08:06:35;34.07;;;27.37;;
3597;SDS011;1813;52.016;8.714;2022-08-01T08:09:09;23.90;;;20.67;;
3597;SDS011;1813;52.016;8.714;2022-08-01T08:11:44;2.97;;;2.77;;
3597;SDS011;1813;52.016;8.714;2022-08-01T08:14:17;3.00;;;2.80;;
3597;SDS011;1813;52.016;8.714;2022-08-01T08:16:49;3.20;;;2.90;;
3597;SDS011;1813;52.016;8.714;2022-08-01T08:19:22;6.53;;;2.70;;
3597;SDS011;1813;52.016;8.714;2022-08-01T08:21:54;2.70;;;2.50;;
3597;SDS011;1813;52.016;8.714;2022-08-01T08:24:28;3.90;;;2.73;;
3597;SDS011;1813;52.016;8.714;2022-08-01T08:27:00;2.83;;;2.63;;
3597;SDS011;1813;52.016;8.714;2022-08-01T08:29:34;4.40;;;4.10;;
3597;SDS011;1813;52.016;8.714;2022-08-01T08:32:06;4.33;;;4.03;;
3597;SDS011;1813;52.016;8.714;2022-08-01T08:34:39;3.20;;;2.30;;
3597;SDS011;1813;52.016;8.714;2022-08-01T08:37:12;3.80;;;2.60;;
3597;SDS011;1813;52.016;8.714;2022-08-01T08:39:45;5.23;;;2.70;;
3597;SDS011;1813;52.016;8.714;2022-08-01T08:42:17;5.53;;;3.40;;
3597;SDS011;1813;52.016;8.714;2022-08-01T08:44:50;2.80;;;2.60;;
3597;SDS011;1813;52.016;8.714;2022-08-01T08:47:24;3.60;;;2.03;;
3597;SDS011;1813;52.016;8.714;2022-08-01T08:49:58;2.03;;;1.80;;
3597;SDS011;1813;52.016;8.714;2022-08-01T08:52:33;2.20;;;2.10;;
3597;SDS011;1813;52.016;8.714;2022-08-01T08:55:11;5.37;;;2.30;;
3597;SDS011;1813;52.016;8.714;2022-08-01T08:57:44;2.37;;;2.23;;
3597;SDS011;1813;52.016;8.714;2022-08-01T09:00:17;2.30;;;2.20;;
3597;SDS011;1813;52.016;8.714;2022-08-01T09:02:49;3.30;;;2.40;;
3597;SDS011;1813;52.016;8.714;2022-08-01T09:05:25;4.63;;;2.03;;
3597;SDS011;1813;52.016;8.714;2022-08-01T09:07:57;2.50;;;2.00;;
3597;SDS011;1813;52.016;8.714;2022-08-01T09:10:31;23.07;;;4.87;;
3597;SDS011;1813;52.016;8.714;2022-08-01T09:13:05;16.33;;;5.43;;
3597;SDS011;1813;52.016;8.714;2022-08-01T09:15:41;3.47;;;2.83;;
3597;SDS011;1813;52.016;8.714;2022-08-01T09:18:26;5.43;;;2.73;;
3597;SDS011;1813;52.016;8.714;2022-08-01T09:21:10;2.47;;;2.30;;
3597;SDS011;1813;52.016;8.714;2022-08-01T09:23:45;14.20;;;2.87;;
3597;SDS011;1813;52.016;8.714;2022-08-01T09:26:21;2.57;;;2.30;;
3597;SDS011;1813;52.016;8.714;2022-08-01T09:29:00;11.63;;;2.80;;
3597;SDS011;1813;52.016;8.714;2022-08-01T09:31:39;16.80;;;3.90;;
3597;SDS011;1813;52.016;8.714;2022-08-01T09:34:12;8.73;;;3.00;;
3597;SDS011;1813;52.016;8.714;2022-08-01T09:36:48;7.70;;;2.43;;
3597;SDS011;1813;52.016;8.714;2022-08-01T09:39:26;4.40;;;2.37;;
3597;SDS011;1813;52.016;8.714;2022-08-01T09:42:01;5.50;;;2.07;;
3597;SDS011;1813;52.016;8.714;2022-08-01T09:44:49;1.90;;;1.80;;
3597;SDS011;1813;52.016;8.714;2022-08-01T09:47:22;2.57;;;1.80;;
3597;SDS011;1813;52.016;8.714;2022-08-01T09:50:08;1.77;;;1.67;;
3597;SDS011;1813;52.016;8.714;2022-08-01T09:52:40;4.47;;;2.07;;
3597;SDS011;1813;52.016;8.714;2022-08-01T09:55:12;3.10;;;2.80;;
3597;SDS011;1813;52.016;8.714;2022-08-01T09:57:55;5.77;;;3.30;;
3597;SDS011;1813;52.016;8.714;2022-08-01T10:00:31;3.73;;;1.80;;
3597;SDS011;1813;52.016;8.714;2022-08-01T10:03:18;6.67;;;1.90;;
3597;SDS011;1813;52.016;8.714;2022-08-01T10:05:51;2.80;;;2.10;;
3597;SDS011;1813;52.016;8.714;2022-08-01T10:08:24;1.60;;;1.50;;
3597;SDS011;1813;52.016;8.714;2022-08-01T10:11:06;9.40;;;1.80;;
3597;SDS011;1813;52.016;8.714;2022-08-01T10:13:41;1.77;;;1.67;;
3597;SDS011;1813;52.016;8.714;2022-08-01T10:16:13;1.63;;;1.33;;
3597;SDS011;1813;52.016;8.714;2022-08-01T10:18:47;6.03;;;2.20;;
3597;SDS011;1813;52.016;8.714;2022-08-01T10:21:19;1.80;;;1.70;;
3597;SDS011;1813;52.016;8.714;2022-08-01T10:23:56;3.90;;;1.90;;
3597;SDS011;1813;52.016;8.714;2022-08-01T10:26:31;9.40;;;2.07;;
3597;SDS011;1813;52.016;8.714;2022-08-01T10:29:06;2.13;;;1.93;;
3597;SDS011;1813;52.016;8.714;2022-08-01T10:31:38;3.67;;;1.80;;
3597;SDS011;1813;52.016;8.714;2022-08-01T10:34:10;2.70;;;1.57;;
3597;SDS011;1813;52.016;8.714;2022-08-01T10:36:45;1.83;;;1.70;;
3597;SDS011;1813;52.016;8.714;2022-08-01T10:39:18;1.70;;;1.60;;
3597;SDS011;1813;52.016;8.714;2022-08-01T10:41:50;2.20;;;1.40;;
3597;SDS011;1813;52.016;8.714;2022-08-01T10:44:24;1.27;;;1.27;;
3597;SDS011;1813;52.016;8.714;2022-08-01T10:47:01;7.43;;;6.77;;
3597;SDS011;1813;52.016;8.714;2022-08-01T10:49:36;2.80;;;1.70;;
3597;SDS011;1813;52.016;8.714;2022-08-01T10:52:15;1.80;;;1.70;;
3597;SDS011;1813;52.016;8.714;2022-08-01T10:54:47;2.33;;;1.57;;
3597;SDS011;1813;52.016;8.714;2022-08-01T10:57:19;4.80;;;1.77;;
3597;SDS011;1813;52.016;8.714;2022-08-01T10:59:52;2.77;;;1.60;;
3597;SDS011;1813;52.016;8.714;2022-08-01T11:02:28;1.80;;;1.70;;
3597;SDS011;1813;52.016;8.714;2022-08-01T11:05:02;5.00;;;1.50;;
3597;SDS011;1813;52.016;8.714;2022-08-01T11:07:41;3.23;;;1.63;;
3597;SDS011;1813;52.016;8.714;2022-08-01T11:10:19;1.80;;;1.70;;
3597;SDS011;1813;52.016;8.714;2022-08-01T11:12:56;3.33;;;1.73;;
3597;SDS011;1813;52.016;8.714;2022-08-01T11:15:30;1.60;;;1.50;;
3597;SDS011;1813;52.016;8.714;2022-08-01T11:18:03;2.87;;;1.70;;
3597;SDS011;1813;52.016;8.714;2022-08-01T11:20:57;2.30;;;1.90;;
3597;SDS011;1813;52.016;8.714;2022-08-01T11:23:30;3.37;;;2.40;;
3597;SDS011;1813;52.016;8.714;2022-08-01T11:26:19;5.40;;;2.30;;
3597;SDS011;1813;52.016;8.714;2022-08-01T11:29:11;3.20;;;2.60;;
3597;SDS011;1813;52.016;8.714;2022-08-01T11:31:47;3.70;;;2.63;;
3597;SDS011;1813;52.016;8.714;2022-08-01T11:34:20;9.93;;;2.27;;
3597;SDS011;1813;52.016;8.714;2022-08-01T11:37:27;3.60;;;2.40;;
3597;SDS011;1813;52.016;8.714;2022-08-01T11:40:14;4.60;;;4.20;;
3597;SDS011;1813;52.016;8.714;2022-08-01T11:42:47;3.67;;;3.40;;
3597;SDS011;1813;52.016;8.714;2022-08-01T11:45:19;3.03;;;2.60;;
3597;SDS011;1813;52.016;8.714;2022-08-01T11:47:51;2.70;;;2.60;;
3597;SDS011;1813;52.016;8.714;2022-08-01T11:50:31;2.97;;;2.77;;
3597;SDS011;1813;52.016;8.714;2022-08-01T11:53:05;3.13;;;2.80;;
3597;SDS011;1813;52.016;8.714;2022-08-01T11:55:41;2.90;;;2.70;;
3597;SDS011;1813;52.016;8.714;2022-08-01T11:58:21;3.37;;;2.20;;
3597;SDS011;1813;52.016;8.714;2022-08-01T12:00:56;2.83;;;2.63;;
3597;SDS011;1813;52.016;8.714;2022-08-01T12:03:30;4.50;;;3.17;;
3597;SDS011;1813;52.016;8.714;2022-08-01T12:06:05;3.30;;;3.00;;
3597;SDS011;1813;52.016;8.714;2022-08-01T12:08:38;5.50;;;3.70;;
3597;SDS011;1813;52.016;8.714;2022-08-01T12:11:10;4.27;;;3.80;;
3597;SDS011;1813;52.016;8.714;2022-08-01T12:13:42;7.70;;;4.20;;
3597;SDS011;1813;52.016;8.714;2022-08-01T12:16:15;8.93;;;4.03;;
3597;SDS011;1813;52.016;8.714;2022-08-01T12:18:47;4.40;;;4.00;;
3597;SDS011;1813;52.016;8.714;2022-08-01T12:21:21;6.80;;;3.83;;
3597;SDS011;1813;52.016;8.714;2022-08-01T12:23:59;5.50;;;4.20;;
3597;SDS011;1813;52.016;8.714;2022-08-01T12:26:39;4.40;;;4.07;;
3597;SDS011;1813;52.016;8.714;2022-08-01T12:32:20;6.70;;;4.70;;
3597;SDS011;1813;52.016;8.714;2022-08-01T12:34:54;9.10;;;4.90;;
3597;SDS011;1813;52.016;8.714;2022-08-01T12:37:29;6.10;;;5.50;;
3597;SDS011;1813;52.016;8.714;2022-08-01T12:40:08;8.43;;;5.73;;
3597;SDS011;1813;52.016;8.714;2022-08-01T12:42:42;6.53;;;5.27;;
3597;SDS011;1813;52.016;8.714;2022-08-01T12:45:17;17.80;;;5.13;;
3597;SDS011;1813;52.016;8.714;2022-08-01T12:47:51;5.37;;;4.87;;
3597;SDS011;1813;52.016;8.714;2022-08-01T12:50:25;6.63;;;5.27;;
3597;SDS011;1813;52.016;8.714;2022-08-01T12:53:03;8.20;;;5.67;;
3597;SDS011;1813;52.016;8.714;2022-08-01T12:55:43;5.87;;;5.37;;
3597;SDS011;1813;52.016;8.714;2022-08-01T12:58:16;5.53;;;5.03;;
3597;SDS011;1813;52.016;8.714;2022-08-01T13:00:49;7.37;;;4.93;;
3597;SDS011;1813;52.016;8.714;2022-08-01T13:03:33;6.40;;;4.77;;
3597;SDS011;1813;52.016;8.714;2022-08-01T13:06:10;6.00;;;5.40;;
3597;SDS011;1813;52.016;8.714;2022-08-01T13:08:46;6.30;;;5.80;;
3597;SDS011;1813;52.016;8.714;2022-08-01T13:11:19;9.47;;;6.63;;
3597;SDS011;1813;52.016;8.714;2022-08-01T13:13:51;8.57;;;6.23;;
3597;SDS011;1813;52.016;8.714;2022-08-01T13:16:24;6.87;;;6.27;;
3597;SDS011;1813;52.016;8.714;2022-08-01T13:18:58;9.80;;;6.10;;
3597;SDS011;1813;52.016;8.714;2022-08-01T13:21:30;6.87;;;6.10;;
3597;SDS011;1813;52.016;8.714;2022-08-01T13:24:05;6.70;;;6.00;;
3597;SDS011;1813;52.016;8.714;2022-08-01T13:26:41;7.03;;;5.60;;
3597;SDS011;1813;52.016;8.714;2022-08-01T13:29:14;7.63;;;6.07;;
3597;SDS011;1813;52.016;8.714;2022-08-01T13:31:47;10.93;;;5.60;;
3597;SDS011;1813;52.016;8.714;2022-08-01T13:34:28;6.00;;;5.40;;
3597;SDS011;1813;52.016;8.714;2022-08-01T13:37:01;6.23;;;5.50;;
3597;SDS011;1813;52.016;8.714;2022-08-01T13:39:39;5.60;;;5.10;;
3597;SDS011;1813;52.016;8.714;2022-08-01T13:42:16;6.57;;;5.67;;
3597;SDS011;1813;52.016;8.714;2022-08-01T13:44:48;7.20;;;5.50;;
3597;SDS011;1813;52.016;8.714;2022-08-01T13:47:20;6.13;;;5.50;;
3597;SDS011;1813;52.016;8.714;2022-08-01T13:49:52;5.83;;;4.97;;
3597;SDS011;1813;52.016;8.714;2022-08-01T13:52:24;5.00;;;4.50;;
3597;SDS011;1813;52.016;8.714;2022-08-01T13:54:57;5.17;;;4.67;;
3597;SDS011;1813;52.016;8.714;2022-08-01T13:57:30;4.93;;;4.53;;
3597;SDS011;1813;52.016;8.714;2022-08-01T14:00:02;9.90;;;5.10;;
3597;SDS011;1813;52.016;8.714;2022-08-01T14:02:42;6.17;;;4.53;;
3597;SDS011;1813;52.016;8.714;2022-08-01T14:05:14;5.10;;;4.27;;
3597;SDS011;1813;52.016;8.714;2022-08-01T14:07:46;4.43;;;4.03;;
3597;SDS011;1813;52.016;8.714;2022-08-01T14:10:19;5.53;;;4.47;;
3597;SDS011;1813;52.016;8.714;2022-08-01T14:12:51;6.10;;;4.73;;
3597;SDS011;1813;52.016;8.714;2022-08-01T14:15:24;4.90;;;4.40;;
3597;SDS011;1813;52.016;8.714;2022-08-01T14:17:56;6.80;;;4.30;;
3597;SDS011;1813;52.016;8.714;2022-08-01T14:20:29;5.33;;;4.00;;
3597;SDS011;1813;52.016;8.714;2022-08-01T14:23:01;5.03;;;4.10;;
3597;SDS011;1813;52.016;8.714;2022-08-01T14:25:34;6.37;;;4.10;;
3597;SDS011;1813;52.016;8.714;2022-08-01T14:28:06;4.30;;;4.00;;
3597;SDS011;1813;52.016;8.714;2022-08-01T14:30:39;7.23;;;3.40;;
3597;SDS011;1813;52.016;8.714;2022-08-01T14:33:12;3.70;;;3.40;;
3597;SDS011;1813;52.016;8.714;2022-08-01T14:35:44;6.20;;;4.00;;
3597;SDS011;1813;52.016;8.714;2022-08-01T14:38:16;5.17;;;3.70;;
3597;SDS011;1813;52.016;8.714;2022-08-01T14:40:50;5.00;;;4.07;;
3597;SDS011;1813;52.016;8.714;2022-08-01T14:43:23;5.20;;;3.63;;
3597;SDS011;1813;52.016;8.714;2022-08-01T14:45:55;5.07;;;3.60;;
3597;SDS011;1813;52.016;8.714;2022-08-01T14:48:27;3.83;;;3.33;;
3597;SDS011;1813;52.016;8.714;2022-08-01T14:50:59;3.73;;;3.00;;
3597;SDS011;1813;52.016;8.714;2022-08-01T14:53:39;5.53;;;3.23;;
3597;SDS011;1813;52.016;8.714;2022-08-01T14:56:13;3.93;;;3.33;;
3597;SDS011;1813;52.016;8.714;2022-08-01T14:58:45;3.97;;;3.30;;
3597;SDS011;1813;52.016;8.714;2022-08-01T15:01:17;3.57;;;3.10;;
3597;SDS011;1813;52.016;8.714;2022-08-01T15:03:49;4.63;;;3.27;;
3597;SDS011;1813;52.016;8.714;2022-08-01T15:06:21;3.57;;;3.20;;
3597;SDS011;1813;52.016;8.714;2022-08-01T15:08:53;6.50;;;3.53;;
3597;SDS011;1813;52.016;8.714;2022-08-01T15:11:26;3.10;;;2.90;;
3597;SDS011;1813;52.016;8.714;2022-08-01T15:13:58;3.87;;;3.43;;
3597;SDS011;1813;52.016;8.714;2022-08-01T15:16:44;8.17;;;3.40;;
3597;SDS011;1813;52.016;8.714;2022-08-01T15:19:16;6.27;;;3.67;;
3597;SDS011;1813;52.016;8.714;2022-08-01T15:21:48;3.50;;;3.20;;
3597;SDS011;1813;52.016;8.714;2022-08-01T15:24:20;5.30;;;4.00;;
3597;SDS011;1813;52.016;8.714;2022-08-01T15:26:53;4.27;;;3.70;;
3597;SDS011;1813;52.016;8.714;2022-08-01T15:29:25;5.47;;;3.90;;
3597;SDS011;1813;52.016;8.714;2022-08-01T15:31:57;7.93;;;4.00;;
3597;SDS011;1813;52.016;8.714;2022-08-01T15:34:29;5.60;;;4.37;;
3597;SDS011;1813;52.016;8.714;2022-08-01T15:37:02;10.90;;;4.80;;
3597;SDS011;1813;52.016;8.714;2022-08-01T15:39:35;7.17;;;4.53;;
3597;SDS011;1813;52.016;8.714;2022-08-01T15:42:09;8.40;;;4.20;;
3597;SDS011;1813;52.016;8.714;2022-08-01T15:44:42;10.10;;;4.13;;
3597;SDS011;1813;52.016;8.714;2022-08-01T15:47:15;5.87;;;4.03;;
3597;SDS011;1813;52.016;8.714;2022-08-01T15:49:47;5.70;;;3.63;;
3597;SDS011;1813;52.016;8.714;2022-08-01T15:52:19;5.70;;;3.50;;
3597;SDS011;1813;52.016;8.714;2022-08-01T15:54:51;6.53;;;3.73;;
3597;SDS011;1813;52.016;8.714;2022-08-01T15:57:25;7.80;;;3.50;;